sensor_id;sensor_type;location;lat;lon;timestamp;P1;durP1;ratioP1;P2;durP2;ratioP2
7029;SDS011;3556;53.500;10.176;2022-07-19T00:01:23;7.63;;;7.10;;
7029;SDS011;3556;53.500;10.176;2022-07-19T00:03:49;7.07;;;6.53;;
7029;SDS011;3556;53.500;10.176;2022-07-19T00:06:15;7.70;;;7.20;;
7029;SDS011;3556;53.500;10.176;2022-07-19T00:08:40;7.90;;;7.33;;
7029;SDS011;3556;53.500;10.176;2022-07-19T00:11:06;7.97;;;7.37;;
7029;SDS011;3556;53.500;10.176;2022-07-19T00:13:32;8.53;;;7.83;;
7029;SDS011;3556;53.500;10.176;2022-07-19T00:15:57;8.50;;;7.70;;
7029;SDS011;3556;53.500;10.176;2022-07-19T00:18:23;7.53;;;6.93;;
7029;SDS011;3556;53.500;10.176;2022-07-19T00:20:49;8.03;;;7.47;;
7029;SDS011;3556;53.500;10.176;2022-07-19T00:23:15;7.97;;;7.30;;
7029;SDS011;3556;53.500;10.176;2022-07-19T00:25:40;7.60;;;7.10;;
7029;SDS011;3556;53.500;10.176;2022-07-19T00:28:07;8.07;;;7.27;;
7029;SDS011;3556;53.500;10.176;2022-07-19T00:30:32;8.17;;;7.57;;
7029;SDS011;3556;53.500;10.176;2022-07-19T00:32:58;7.80;;;7.07;;
7029;SDS011;3556;53.500;10.176;2022-07-19T00:35:24;7.77;;;7.17;;
7029;SDS011;3556;53.500;10.176;2022-07-19T00:37:50;7.83;;;7.20;;
7029;SDS011;3556;53.500;10.176;2022-07-19T00:40:24;6.90;;;6.40;;
7029;SDS011;3556;53.500;10.176;2022-07-19T00:42:50;7.93;;;7.30;;
7029;SDS011;3556;53.500;10.176;2022-07-19T00:45:17;10.00;;;9.10;;
7029;SDS011;3556;53.500;10.176;2022-07-19T00:47:42;8.30;;;7.50;;
7029;SDS011;3556;53.500;10.176;2022-07-19T00:50:08;7.87;;;7.27;;
7029;SDS011;3556;53.500;10.176;2022-07-19T00:52:34;7.90;;;7.40;;
7029;SDS011;3556;53.500;10.176;2022-07-19T00:55:03;7.17;;;6.77;;
7029;SDS011;3556;53.500;10.176;2022-07-19T00:57:30;8.07;;;7.37;;
7029;SDS011;3556;53.500;10.176;2022-07-19T00:59:56;7.90;;;7.30;;
7029;SDS011;3556;53.500;10.176;2022-07-19T01:02:23;7.57;;;7.13;;
7029;SDS011;3556;53.500;10.176;2022-07-19T01:04:50;10.93;;;7.67;;
7029;SDS011;3556;53.500;10.176;2022-07-19T01:07:16;7.37;;;6.87;;
7029;SDS011;3556;53.500;10.176;2022-07-19T01:09:41;7.93;;;7.33;;
7029;SDS011;3556;53.500;10.176;2022-07-19T01:12:07;8.07;;;7.40;;
7029;SDS011;3556;53.500;10.176;2022-07-19T01:14:33;8.13;;;7.43;;
7029;SDS011;3556;53.500;10.176;2022-07-19T01:17:02;7.80;;;7.20;;
7029;SDS011;3556;53.500;10.176;2022-07-19T01:19:28;7.73;;;7.13;;
7029;SDS011;3556;53.500;10.176;2022-07-19T01:21:54;8.60;;;7.77;;
7029;SDS011;3556;53.500;10.176;2022-07-19T01:24:20;9.53;;;6.53;;
7029;SDS011;3556;53.500;10.176;2022-07-19T01:26:45;7.70;;;7.10;;
7029;SDS011;3556;53.500;10.176;2022-07-19T01:29:15;8.13;;;7.33;;
7029;SDS011;3556;53.500;10.176;2022-07-19T01:31:41;8.37;;;7.77;;
7029;SDS011;3556;53.500;10.176;2022-07-19T01:34:07;9.00;;;7.30;;
7029;SDS011;3556;53.500;10.176;2022-07-19T01:36:32;8.00;;;7.40;;
7029;SDS011;3556;53.500;10.176;2022-07-19T01:38:59;7.83;;;7.07;;
7029;SDS011;3556;53.500;10.176;2022-07-19T01:41:24;7.17;;;6.53;;
7029;SDS011;3556;53.500;10.176;2022-07-19T01:43:50;11.43;;;7.77;;
7029;SDS011;3556;53.500;10.176;2022-07-19T01:46:16;7.20;;;6.73;;
7029;SDS011;3556;53.500;10.176;2022-07-19T01:48:41;8.90;;;7.70;;
7029;SDS011;3556;53.500;10.176;2022-07-19T01:51:07;7.10;;;6.63;;
7029;SDS011;3556;53.500;10.176;2022-07-19T01:53:33;7.43;;;6.70;;
7029;SDS011;3556;53.500;10.176;2022-07-19T01:55:58;8.10;;;7.40;;
7029;SDS011;3556;53.500;10.176;2022-07-19T01:58:24;7.20;;;6.67;;
7029;SDS011;3556;53.500;10.176;2022-07-19T02:00:50;7.17;;;6.57;;
7029;SDS011;3556;53.500;10.176;2022-07-19T02:03:16;7.50;;;6.80;;
7029;SDS011;3556;53.500;10.176;2022-07-19T02:05:43;7.60;;;6.90;;
7029;SDS011;3556;53.500;10.176;2022-07-19T02:08:08;7.97;;;7.40;;
7029;SDS011;3556;53.500;10.176;2022-07-19T02:10:34;7.30;;;6.90;;
7029;SDS011;3556;53.500;10.176;2022-07-19T02:13:00;7.97;;;7.37;;
7029;SDS011;3556;53.500;10.176;2022-07-19T02:15:26;7.67;;;7.17;;
7029;SDS011;3556;53.500;10.176;2022-07-19T02:17:52;7.43;;;6.83;;
7029;SDS011;3556;53.500;10.176;2022-07-19T02:20:17;7.50;;;7.00;;
7029;SDS011;3556;53.500;10.176;2022-07-19T02:22:43;8.00;;;7.43;;
7029;SDS011;3556;53.500;10.176;2022-07-19T02:25:09;7.30;;;6.80;;
7029;SDS011;3556;53.500;10.176;2022-07-19T02:27:35;8.67;;;7.20;;
7029;SDS011;3556;53.500;10.176;2022-07-19T02:30:02;7.10;;;6.70;;
7029;SDS011;3556;53.500;10.176;2022-07-19T02:32:28;7.80;;;7.20;;
7029;SDS011;3556;53.500;10.176;2022-07-19T02:34:54;8.60;;;6.80;;
7029;SDS011;3556;53.500;10.176;2022-07-19T02:37:19;7.50;;;6.90;;
7029;SDS011;3556;53.500;10.176;2022-07-19T02:39:45;7.50;;;7.00;;
7029;SDS011;3556;53.500;10.176;2022-07-19T02:42:10;7.40;;;6.90;;
7029;SDS011;3556;53.500;10.176;2022-07-19T02:44:36;12.00;;;7.80;;
7029;SDS011;3556;53.500;10.176;2022-07-19T02:47:02;7.80;;;7.30;;
7029;SDS011;3556;53.500;10.176;2022-07-19T02:49:27;6.80;;;6.40;;
7029;SDS011;3556;53.500;10.176;2022-07-19T02:51:53;7.87;;;7.23;;
7029;SDS011;3556;53.500;10.176;2022-07-19T02:54:19;8.03;;;7.43;;
7029;SDS011;3556;53.500;10.176;2022-07-19T02:56:44;8.60;;;7.80;;
7029;SDS011;3556;53.500;10.176;2022-07-19T02:59:10;7.70;;;7.10;;
7029;SDS011;3556;53.500;10.176;2022-07-19T03:01:35;7.87;;;7.37;;
7029;SDS011;3556;53.500;10.176;2022-07-19T03:04:01;8.53;;;7.83;;
7029;SDS011;3556;53.500;10.176;2022-07-19T03:06:27;7.47;;;6.90;;
7029;SDS011;3556;53.500;10.176;2022-07-19T03:08:52;8.57;;;7.97;;
7029;SDS011;3556;53.500;10.176;2022-07-19T03:11:18;7.97;;;7.40;;
7029;SDS011;3556;53.500;10.176;2022-07-19T03:13:44;7.57;;;6.97;;
7029;SDS011;3556;53.500;10.176;2022-07-19T03:16:09;8.37;;;7.67;;
7029;SDS011;3556;53.500;10.176;2022-07-19T03:18:35;7.90;;;7.40;;
7029;SDS011;3556;53.500;10.176;2022-07-19T03:21:01;8.53;;;7.93;;
7029;SDS011;3556;53.500;10.176;2022-07-19T03:23:27;8.00;;;7.40;;
7029;SDS011;3556;53.500;10.176;2022-07-19T03:25:57;8.60;;;7.63;;
7029;SDS011;3556;53.500;10.176;2022-07-19T03:28:22;7.93;;;7.43;;
7029;SDS011;3556;53.500;10.176;2022-07-19T03:30:48;7.47;;;6.97;;
7029;SDS011;3556;53.500;10.176;2022-07-19T03:33:13;7.50;;;6.97;;
7029;SDS011;3556;53.500;10.176;2022-07-19T03:35:41;7.10;;;6.63;;
7029;SDS011;3556;53.500;10.176;2022-07-19T03:38:08;10.67;;;7.70;;
7029;SDS011;3556;53.500;10.176;2022-07-19T03:40:35;7.70;;;7.30;;
7029;SDS011;3556;53.500;10.176;2022-07-19T03:43:00;7.97;;;7.30;;
7029;SDS011;3556;53.500;10.176;2022-07-19T03:45:26;8.33;;;7.60;;
7029;SDS011;3556;53.500;10.176;2022-07-19T03:47:52;7.60;;;7.10;;
7029;SDS011;3556;53.500;10.176;2022-07-19T03:50:17;8.30;;;7.50;;
7029;SDS011;3556;53.500;10.176;2022-07-19T03:52:43;8.93;;;7.47;;
7029;SDS011;3556;53.500;10.176;2022-07-19T03:55:09;8.70;;;7.90;;
7029;SDS011;3556;53.500;10.176;2022-07-19T03:57:34;8.47;;;7.67;;
7029;SDS011;3556;53.500;10.176;2022-07-19T04:00:00;8.67;;;7.80;;
7029;SDS011;3556;53.500;10.176;2022-07-19T04:02:25;8.37;;;7.67;;
7029;SDS011;3556;53.500;10.176;2022-07-19T04:04:52;8.43;;;7.73;;
7029;SDS011;3556;53.500;10.176;2022-07-19T04:07:17;7.70;;;7.20;;
7029;SDS011;3556;53.500;10.176;2022-07-19T04:09:43;8.20;;;7.50;;
7029;SDS011;3556;53.500;10.176;2022-07-19T04:12:09;7.87;;;7.30;;
7029;SDS011;3556;53.500;10.176;2022-07-19T04:14:34;8.47;;;7.70;;
7029;SDS011;3556;53.500;10.176;2022-07-19T04:17:00;8.73;;;7.93;;
7029;SDS011;3556;53.500;10.176;2022-07-19T04:19:29;9.30;;;8.50;;
7029;SDS011;3556;53.500;10.176;2022-07-19T04:21:55;8.43;;;7.73;;
7029;SDS011;3556;53.500;10.176;2022-07-19T04:24:21;8.80;;;8.00;;
7029;SDS011;3556;53.500;10.176;2022-07-19T04:26:47;9.77;;;8.90;;
7029;SDS011;3556;53.500;10.176;2022-07-19T04:29:12;9.03;;;8.13;;
7029;SDS011;3556;53.500;10.176;2022-07-19T04:31:38;8.47;;;7.77;;
7029;SDS011;3556;53.500;10.176;2022-07-19T04:34:03;11.10;;;8.17;;
7029;SDS011;3556;53.500;10.176;2022-07-19T04:36:29;9.20;;;8.40;;
7029;SDS011;3556;53.500;10.176;2022-07-19T04:38:55;8.97;;;8.20;;
7029;SDS011;3556;53.500;10.176;2022-07-19T04:41:20;8.87;;;8.17;;
7029;SDS011;3556;53.500;10.176;2022-07-19T04:43:46;9.30;;;8.20;;
7029;SDS011;3556;53.500;10.176;2022-07-19T04:46:12;10.60;;;9.33;;
7029;SDS011;3556;53.500;10.176;2022-07-19T04:48:37;10.83;;;8.30;;
7029;SDS011;3556;53.500;10.176;2022-07-19T04:51:05;9.57;;;8.67;;
7029;SDS011;3556;53.500;10.176;2022-07-19T04:53:31;9.70;;;8.80;;
7029;SDS011;3556;53.500;10.176;2022-07-19T04:55:57;9.53;;;8.67;;
7029;SDS011;3556;53.500;10.176;2022-07-19T04:58:23;9.77;;;8.40;;
7029;SDS011;3556;53.500;10.176;2022-07-19T05:00:48;12.03;;;8.87;;
7029;SDS011;3556;53.500;10.176;2022-07-19T05:03:14;9.00;;;8.10;;
7029;SDS011;3556;53.500;10.176;2022-07-19T05:05:40;9.33;;;8.57;;
7029;SDS011;3556;53.500;10.176;2022-07-19T05:08:05;9.73;;;7.93;;
7029;SDS011;3556;53.500;10.176;2022-07-19T05:10:31;12.30;;;9.00;;
7029;SDS011;3556;53.500;10.176;2022-07-19T05:12:57;9.47;;;8.60;;
7029;SDS011;3556;53.500;10.176;2022-07-19T05:15:23;9.57;;;8.77;;
7029;SDS011;3556;53.500;10.176;2022-07-19T05:17:48;9.77;;;8.93;;
7029;SDS011;3556;53.500;10.176;2022-07-19T05:20:14;9.50;;;8.70;;
7029;SDS011;3556;53.500;10.176;2022-07-19T05:22:41;13.70;;;8.50;;
7029;SDS011;3556;53.500;10.176;2022-07-19T05:25:08;9.13;;;8.43;;
7029;SDS011;3556;53.500;10.176;2022-07-19T05:27:34;9.43;;;8.67;;
7029;SDS011;3556;53.500;10.176;2022-07-19T05:30:01;9.20;;;8.50;;
7029;SDS011;3556;53.500;10.176;2022-07-19T05:32:28;13.47;;;8.73;;
7029;SDS011;3556;53.500;10.176;2022-07-19T05:34:53;8.30;;;7.60;;
7029;SDS011;3556;53.500;10.176;2022-07-19T05:37:19;8.67;;;7.87;;
7029;SDS011;3556;53.500;10.176;2022-07-19T05:39:45;9.93;;;8.90;;
7029;SDS011;3556;53.500;10.176;2022-07-19T05:42:10;9.50;;;8.50;;
7029;SDS011;3556;53.500;10.176;2022-07-19T05:44:36;10.23;;;8.97;;
7029;SDS011;3556;53.500;10.176;2022-07-19T05:47:01;9.80;;;8.90;;
7029;SDS011;3556;53.500;10.176;2022-07-19T05:49:27;8.83;;;8.10;;
7029;SDS011;3556;53.500;10.176;2022-07-19T05:51:53;10.27;;;8.47;;
7029;SDS011;3556;53.500;10.176;2022-07-19T05:54:18;14.27;;;8.50;;
7029;SDS011;3556;53.500;10.176;2022-07-19T05:56:44;9.73;;;8.73;;
7029;SDS011;3556;53.500;10.176;2022-07-19T05:59:10;9.90;;;8.90;;
7029;SDS011;3556;53.500;10.176;2022-07-19T06:01:36;19.13;;;8.37;;
7029;SDS011;3556;53.500;10.176;2022-07-19T06:04:01;9.73;;;8.27;;
7029;SDS011;3556;53.500;10.176;2022-07-19T06:06:29;10.23;;;8.10;;
7029;SDS011;3556;53.500;10.176;2022-07-19T06:08:56;8.60;;;7.87;;
7029;SDS011;3556;53.500;10.176;2022-07-19T06:11:23;11.93;;;7.50;;
7029;SDS011;3556;53.500;10.176;2022-07-19T06:13:49;7.53;;;7.03;;
7029;SDS011;3556;53.500;10.176;2022-07-19T06:16:16;6.80;;;6.40;;
7029;SDS011;3556;53.500;10.176;2022-07-19T06:18:42;7.97;;;7.37;;
7029;SDS011;3556;53.500;10.176;2022-07-19T06:21:17;11.67;;;6.90;;
7029;SDS011;3556;53.500;10.176;2022-07-19T06:23:44;12.80;;;7.40;;
7029;SDS011;3556;53.500;10.176;2022-07-19T06:26:11;12.37;;;6.93;;
7029;SDS011;3556;53.500;10.176;2022-07-19T06:28:37;7.43;;;7.03;;
7029;SDS011;3556;53.500;10.176;2022-07-19T06:31:03;7.70;;;7.20;;
7029;SDS011;3556;53.500;10.176;2022-07-19T06:33:29;7.37;;;6.77;;
7029;SDS011;3556;53.500;10.176;2022-07-19T06:35:55;7.77;;;7.07;;
7029;SDS011;3556;53.500;10.176;2022-07-19T06:38:21;8.43;;;7.70;;
7029;SDS011;3556;53.500;10.176;2022-07-19T06:40:46;10.40;;;7.33;;
7029;SDS011;3556;53.500;10.176;2022-07-19T06:43:12;8.33;;;7.47;;
7029;SDS011;3556;53.500;10.176;2022-07-19T06:45:38;11.60;;;7.40;;
7029;SDS011;3556;53.500;10.176;2022-07-19T06:48:04;6.77;;;6.37;;
7029;SDS011;3556;53.500;10.176;2022-07-19T06:50:30;7.67;;;7.07;;
7029;SDS011;3556;53.500;10.176;2022-07-19T06:52:56;7.40;;;7.00;;
7029;SDS011;3556;53.500;10.176;2022-07-19T06:55:21;7.43;;;6.80;;
7029;SDS011;3556;53.500;10.176;2022-07-19T06:57:47;7.20;;;6.60;;
7029;SDS011;3556;53.500;10.176;2022-07-19T07:00:13;8.73;;;6.63;;
7029;SDS011;3556;53.500;10.176;2022-07-19T07:02:39;8.33;;;6.60;;
7029;SDS011;3556;53.500;10.176;2022-07-19T07:05:06;8.73;;;7.00;;
7029;SDS011;3556;53.500;10.176;2022-07-19T07:07:33;6.87;;;6.47;;
7029;SDS011;3556;53.500;10.176;2022-07-19T07:09:59;7.00;;;6.57;;
7029;SDS011;3556;53.500;10.176;2022-07-19T07:12:28;6.43;;;6.10;;
7029;SDS011;3556;53.500;10.176;2022-07-19T07:14:54;7.53;;;6.77;;
7029;SDS011;3556;53.500;10.176;2022-07-19T07:17:20;7.73;;;7.00;;
7029;SDS011;3556;53.500;10.176;2022-07-19T07:19:46;7.10;;;6.50;;
7029;SDS011;3556;53.500;10.176;2022-07-19T07:22:11;8.17;;;7.47;;
7029;SDS011;3556;53.500;10.176;2022-07-19T07:24:37;8.13;;;7.43;;
7029;SDS011;3556;53.500;10.176;2022-07-19T07:27:03;8.33;;;7.53;;
7029;SDS011;3556;53.500;10.176;2022-07-19T07:29:29;8.97;;;8.07;;
7029;SDS011;3556;53.500;10.176;2022-07-19T07:31:55;7.97;;;7.27;;
7029;SDS011;3556;53.500;10.176;2022-07-19T07:34:20;10.23;;;7.63;;
7029;SDS011;3556;53.500;10.176;2022-07-19T07:36:46;8.20;;;6.70;;
7029;SDS011;3556;53.500;10.176;2022-07-19T07:39:12;9.50;;;7.53;;
7029;SDS011;3556;53.500;10.176;2022-07-19T07:41:38;10.20;;;6.53;;
7029;SDS011;3556;53.500;10.176;2022-07-19T07:44:04;8.87;;;6.67;;
7029;SDS011;3556;53.500;10.176;2022-07-19T07:46:30;7.23;;;6.70;;
7029;SDS011;3556;53.500;10.176;2022-07-19T07:48:56;9.70;;;7.70;;
7029;SDS011;3556;53.500;10.176;2022-07-19T07:51:22;6.73;;;6.27;;
7029;SDS011;3556;53.500;10.176;2022-07-19T07:53:48;7.07;;;6.33;;
7029;SDS011;3556;53.500;10.176;2022-07-19T07:56:14;13.77;;;6.03;;
7029;SDS011;3556;53.500;10.176;2022-07-19T07:58:40;7.23;;;6.73;;
7029;SDS011;3556;53.500;10.176;2022-07-19T08:01:05;6.50;;;6.00;;
7029;SDS011;3556;53.500;10.176;2022-07-19T08:03:31;6.33;;;5.97;;
7029;SDS011;3556;53.500;10.176;2022-07-19T08:05:57;6.90;;;6.10;;
7029;SDS011;3556;53.500;10.176;2022-07-19T08:08:23;6.50;;;6.10;;
7029;SDS011;3556;53.500;10.176;2022-07-19T08:10:52;7.30;;;6.70;;
7029;SDS011;3556;53.500;10.176;2022-07-19T08:13:18;6.97;;;6.37;;
7029;SDS011;3556;53.500;10.176;2022-07-19T08:15:44;6.70;;;6.13;;
7029;SDS011;3556;53.500;10.176;2022-07-19T08:18:09;6.43;;;5.97;;
7029;SDS011;3556;53.500;10.176;2022-07-19T08:20:35;10.50;;;5.90;;
7029;SDS011;3556;53.500;10.176;2022-07-19T08:23:01;6.10;;;5.80;;
7029;SDS011;3556;53.500;10.176;2022-07-19T08:25:27;7.40;;;6.43;;
7029;SDS011;3556;53.500;10.176;2022-07-19T08:27:53;9.20;;;6.67;;
7029;SDS011;3556;53.500;10.176;2022-07-19T08:30:19;7.27;;;5.63;;
7029;SDS011;3556;53.500;10.176;2022-07-19T08:32:44;7.47;;;5.83;;
7029;SDS011;3556;53.500;10.176;2022-07-19T08:35:10;6.77;;;6.33;;
7029;SDS011;3556;53.500;10.176;2022-07-19T08:37:36;11.20;;;5.70;;
7029;SDS011;3556;53.500;10.176;2022-07-19T08:40:03;6.57;;;5.93;;
7029;SDS011;3556;53.500;10.176;2022-07-19T08:42:30;8.60;;;5.70;;
7029;SDS011;3556;53.500;10.176;2022-07-19T08:44:56;5.80;;;5.47;;
7029;SDS011;3556;53.500;10.176;2022-07-19T08:47:27;7.63;;;5.63;;
7029;SDS011;3556;53.500;10.176;2022-07-19T08:49:54;6.00;;;5.70;;
7029;SDS011;3556;53.500;10.176;2022-07-19T08:52:22;6.20;;;5.60;;
7029;SDS011;3556;53.500;10.176;2022-07-19T08:54:49;5.77;;;5.20;;
7029;SDS011;3556;53.500;10.176;2022-07-19T08:57:15;5.80;;;5.50;;
7029;SDS011;3556;53.500;10.176;2022-07-19T08:59:59;5.00;;;4.90;;
7029;SDS011;3556;53.500;10.176;2022-07-19T09:02:25;5.47;;;5.17;;
7029;SDS011;3556;53.500;10.176;2022-07-19T09:07:59;5.87;;;5.40;;
7029;SDS011;3556;53.500;10.176;2022-07-19T09:10:24;5.23;;;5.07;;
7029;SDS011;3556;53.500;10.176;2022-07-19T09:13:00;5.00;;;4.67;;
7029;SDS011;3556;53.500;10.176;2022-07-19T09:18:12;5.40;;;5.20;;
7029;SDS011;3556;53.500;10.176;2022-07-19T09:20:40;4.63;;;4.53;;
7029;SDS011;3556;53.500;10.176;2022-07-19T09:23:06;5.53;;;5.13;;
7029;SDS011;3556;53.500;10.176;2022-07-19T09:25:42;5.70;;;5.20;;
7029;SDS011;3556;53.500;10.176;2022-07-19T09:28:10;4.90;;;4.80;;
7029;SDS011;3556;53.500;10.176;2022-07-19T09:30:37;5.60;;;5.30;;
7029;SDS011;3556;53.500;10.176;2022-07-19T09:33:15;5.53;;;5.10;;
7029;SDS011;3556;53.500;10.176;2022-07-19T09:38:18;6.70;;;4.77;;
7029;SDS011;3556;53.500;10.176;2022-07-19T09:40:47;5.30;;;4.90;;
7029;SDS011;3556;53.500;10.176;2022-07-19T09:43:15;5.60;;;5.10;;
7029;SDS011;3556;53.500;10.176;2022-07-19T09:45:42;5.27;;;4.90;;
7029;SDS011;3556;53.500;10.176;2022-07-19T09:48:07;5.07;;;4.77;;
7029;SDS011;3556;53.500;10.176;2022-07-19T09:50:33;4.87;;;4.67;;
7029;SDS011;3556;53.500;10.176;2022-07-19T09:53:01;5.50;;;5.10;;
7029;SDS011;3556;53.500;10.176;2022-07-19T09:55:28;5.60;;;5.30;;
7029;SDS011;3556;53.500;10.176;2022-07-19T09:57:55;4.80;;;4.60;;
7029;SDS011;3556;53.500;10.176;2022-07-19T10:00:23;7.77;;;4.90;;
7029;SDS011;3556;53.500;10.176;2022-07-19T10:02:53;4.30;;;4.20;;
7029;SDS011;3556;53.500;10.176;2022-07-19T10:05:21;4.77;;;4.57;;
7029;SDS011;3556;53.500;10.176;2022-07-19T10:07:47;5.10;;;4.90;;
7029;SDS011;3556;53.500;10.176;2022-07-19T10:10:14;4.60;;;4.30;;
7029;SDS011;3556;53.500;10.176;2022-07-19T10:12:43;4.77;;;4.50;;
7029;SDS011;3556;53.500;10.176;2022-07-19T10:15:11;9.50;;;4.50;;
7029;SDS011;3556;53.500;10.176;2022-07-19T10:17:41;4.40;;;4.20;;
7029;SDS011;3556;53.500;10.176;2022-07-19T10:20:19;4.20;;;4.10;;
7029;SDS011;3556;53.500;10.176;2022-07-19T10:22:48;3.97;;;3.77;;
7029;SDS011;3556;53.500;10.176;2022-07-19T10:25:15;3.93;;;3.83;;
7029;SDS011;3556;53.500;10.176;2022-07-19T10:27:48;3.90;;;3.70;;
7029;SDS011;3556;53.500;10.176;2022-07-19T10:30:17;3.47;;;3.37;;
7029;SDS011;3556;53.500;10.176;2022-07-19T10:32:48;3.90;;;3.80;;
7029;SDS011;3556;53.500;10.176;2022-07-19T10:37:45;4.00;;;3.90;;
7029;SDS011;3556;53.500;10.176;2022-07-19T10:40:12;4.00;;;3.80;;
7029;SDS011;3556;53.500;10.176;2022-07-19T10:45:33;3.10;;;2.90;;
7029;SDS011;3556;53.500;10.176;2022-07-19T10:48:00;6.10;;;2.30;;
7029;SDS011;3556;53.500;10.176;2022-07-19T10:56:17;4.17;;;3.83;;
7029;SDS011;3556;53.500;10.176;2022-07-19T10:58:48;2.40;;;2.27;;
7029;SDS011;3556;53.500;10.176;2022-07-19T11:01:16;2.80;;;2.70;;
7029;SDS011;3556;53.500;10.176;2022-07-19T11:03:44;3.07;;;2.97;;
7029;SDS011;3556;53.500;10.176;2022-07-19T11:06:11;3.07;;;2.87;;
7029;SDS011;3556;53.500;10.176;2022-07-19T11:08:45;3.43;;;3.23;;
7029;SDS011;3556;53.500;10.176;2022-07-19T11:11:11;4.77;;;3.57;;
7029;SDS011;3556;53.500;10.176;2022-07-19T11:13:40;3.90;;;3.80;;
7029;SDS011;3556;53.500;10.176;2022-07-19T11:16:09;3.47;;;3.17;;
7029;SDS011;3556;53.500;10.176;2022-07-19T11:18:35;3.60;;;3.40;;
7029;SDS011;3556;53.500;10.176;2022-07-19T11:21:02;3.03;;;2.93;;
7029;SDS011;3556;53.500;10.176;2022-07-19T11:23:30;3.30;;;3.10;;
7029;SDS011;3556;53.500;10.176;2022-07-19T11:26:09;3.40;;;3.30;;
7029;SDS011;3556;53.500;10.176;2022-07-19T11:28:48;3.57;;;3.40;;
7029;SDS011;3556;53.500;10.176;2022-07-19T11:31:16;3.43;;;3.13;;
7029;SDS011;3556;53.500;10.176;2022-07-19T11:33:44;4.00;;;3.87;;
7029;SDS011;3556;53.500;10.176;2022-07-19T11:36:12;3.70;;;3.60;;
7029;SDS011;3556;53.500;10.176;2022-07-19T11:38:45;3.50;;;3.20;;
7029;SDS011;3556;53.500;10.176;2022-07-19T11:41:20;3.10;;;3.00;;
7029;SDS011;3556;53.500;10.176;2022-07-19T11:43:54;3.10;;;3.00;;
7029;SDS011;3556;53.500;10.176;2022-07-19T11:46:22;5.63;;;3.57;;
7029;SDS011;3556;53.500;10.176;2022-07-19T11:48:56;3.00;;;2.90;;
7029;SDS011;3556;53.500;10.176;2022-07-19T11:51:23;3.40;;;3.20;;
7029;SDS011;3556;53.500;10.176;2022-07-19T11:53:49;3.87;;;3.50;;
7029;SDS011;3556;53.500;10.176;2022-07-19T11:56:19;3.55;;;3.35;;
7029;SDS011;3556;53.500;10.176;2022-07-19T11:58:50;7.93;;;3.30;;
7029;SDS011;3556;53.500;10.176;2022-07-19T12:03:57;4.05;;;3.67;;
7029;SDS011;3556;53.500;10.176;2022-07-19T12:09:06;4.05;;;3.83;;
7029;SDS011;3556;53.500;10.176;2022-07-19T12:11:46;6.65;;;3.47;;
7029;SDS011;3556;53.500;10.176;2022-07-19T12:14:27;3.25;;;2.95;;
7029;SDS011;3556;53.500;10.176;2022-07-19T12:17:15;3.55;;;3.42;;
7029;SDS011;3556;53.500;10.176;2022-07-19T12:19:43;3.83;;;3.60;;
7029;SDS011;3556;53.500;10.176;2022-07-19T12:22:29;3.60;;;3.30;;
7029;SDS011;3556;53.500;10.176;2022-07-19T12:24:59;6.40;;;3.53;;
7029;SDS011;3556;53.500;10.176;2022-07-19T12:27:25;3.75;;;3.42;;
7029;SDS011;3556;53.500;10.176;2022-07-19T12:29:55;3.55;;;3.45;;
7029;SDS011;3556;53.500;10.176;2022-07-19T12:32:31;3.40;;;3.30;;
7029;SDS011;3556;53.500;10.176;2022-07-19T12:35:01;3.22;;;3.13;;
7029;SDS011;3556;53.500;10.176;2022-07-19T12:40:09;4.68;;;3.45;;
7029;SDS011;3556;53.500;10.176;2022-07-19T12:42:54;3.97;;;3.58;;
7029;SDS011;3556;53.500;10.176;2022-07-19T12:45:32;4.63;;;3.25;;
7029;SDS011;3556;53.500;10.176;2022-07-19T12:47:59;3.67;;;3.40;;
7029;SDS011;3556;53.500;10.176;2022-07-19T12:50:33;3.40;;;3.20;;
7029;SDS011;3556;53.500;10.176;2022-07-19T12:53:02;7.00;;;3.50;;
7029;SDS011;3556;53.500;10.176;2022-07-19T12:55:29;3.72;;;3.63;;
7029;SDS011;3556;53.500;10.176;2022-07-19T12:57:57;6.72;;;3.22;;
7029;SDS011;3556;53.500;10.176;2022-07-19T13:00:24;5.47;;;3.22;;
7029;SDS011;3556;53.500;10.176;2022-07-19T13:02:52;4.50;;;3.20;;
7029;SDS011;3556;53.500;10.176;2022-07-19T13:05:19;3.30;;;3.20;;
7029;SDS011;3556;53.500;10.176;2022-07-19T13:07:46;3.88;;;3.45;;
7029;SDS011;3556;53.500;10.176;2022-07-19T13:10:12;6.57;;;3.28;;
7029;SDS011;3556;53.500;10.176;2022-07-19T13:12:38;3.00;;;2.90;;
7029;SDS011;3556;53.500;10.176;2022-07-19T13:15:06;3.28;;;2.97;;
7029;SDS011;3556;53.500;10.176;2022-07-19T13:17:33;3.05;;;2.75;;
7029;SDS011;3556;53.500;10.176;2022-07-19T13:19:58;2.85;;;2.60;;
7029;SDS011;3556;53.500;10.176;2022-07-19T13:22:24;3.50;;;2.40;;
7029;SDS011;3556;53.500;10.176;2022-07-19T13:24:51;4.20;;;2.38;;
7029;SDS011;3556;53.500;10.176;2022-07-19T13:27:17;5.00;;;2.88;;
7029;SDS011;3556;53.500;10.176;2022-07-19T13:29:43;3.35;;;2.30;;
7029;SDS011;3556;53.500;10.176;2022-07-19T13:32:10;5.78;;;2.30;;
7029;SDS011;3556;53.500;10.176;2022-07-19T13:34:37;2.92;;;2.60;;
7029;SDS011;3556;53.500;10.176;2022-07-19T13:37:03;5.70;;;2.20;;
7029;SDS011;3556;53.500;10.176;2022-07-19T13:39:29;4.60;;;2.70;;
7029;SDS011;3556;53.500;10.176;2022-07-19T13:41:54;2.50;;;2.35;;
7029;SDS011;3556;53.500;10.176;2022-07-19T13:44:20;2.33;;;2.22;;
7029;SDS011;3556;53.500;10.176;2022-07-19T13:46:46;4.82;;;2.50;;
7029;SDS011;3556;53.500;10.176;2022-07-19T13:49:12;3.75;;;2.40;;
7029;SDS011;3556;53.500;10.176;2022-07-19T13:51:38;2.67;;;2.58;;
7029;SDS011;3556;53.500;10.176;2022-07-19T13:54:04;2.90;;;2.70;;
7029;SDS011;3556;53.500;10.176;2022-07-19T13:56:30;3.00;;;2.80;;
7029;SDS011;3556;53.500;10.176;2022-07-19T13:58:55;7.22;;;2.83;;
7029;SDS011;3556;53.500;10.176;2022-07-19T14:01:21;3.17;;;2.55;;
7029;SDS011;3556;53.500;10.176;2022-07-19T14:03:47;5.82;;;2.70;;
7029;SDS011;3556;53.500;10.176;2022-07-19T14:06:14;5.57;;;2.63;;
7029;SDS011;3556;53.500;10.176;2022-07-19T14:08:40;2.78;;;2.25;;
7029;SDS011;3556;53.500;10.176;2022-07-19T14:11:06;7.63;;;2.78;;
7029;SDS011;3556;53.500;10.176;2022-07-19T14:13:32;9.95;;;3.50;;
7029;SDS011;3556;53.500;10.176;2022-07-19T14:15:59;4.88;;;2.65;;
7029;SDS011;3556;53.500;10.176;2022-07-19T14:18:28;2.83;;;2.63;;
7029;SDS011;3556;53.500;10.176;2022-07-19T14:20:54;2.88;;;2.67;;
7029;SDS011;3556;53.500;10.176;2022-07-19T14:23:21;2.70;;;2.60;;
7029;SDS011;3556;53.500;10.176;2022-07-19T14:25:47;3.20;;;3.00;;
7029;SDS011;3556;53.500;10.176;2022-07-19T14:28:12;8.30;;;2.60;;
7029;SDS011;3556;53.500;10.176;2022-07-19T14:30:38;4.43;;;2.47;;
7029;SDS011;3556;53.500;10.176;2022-07-19T14:33:04;2.95;;;2.63;;
7029;SDS011;3556;53.500;10.176;2022-07-19T14:35:30;2.50;;;2.40;;
7029;SDS011;3556;53.500;10.176;2022-07-19T14:37:55;5.72;;;2.47;;
7029;SDS011;3556;53.500;10.176;2022-07-19T14:40:21;4.47;;;2.90;;
7029;SDS011;3556;53.500;10.176;2022-07-19T14:42:47;5.68;;;2.70;;
7029;SDS011;3556;53.500;10.176;2022-07-19T14:45:13;2.72;;;2.53;;
7029;SDS011;3556;53.500;10.176;2022-07-19T14:47:39;2.83;;;2.63;;
7029;SDS011;3556;53.500;10.176;2022-07-19T14:50:05;2.60;;;2.50;;
7029;SDS011;3556;53.500;10.176;2022-07-19T14:52:32;6.82;;;2.92;;
7029;SDS011;3556;53.500;10.176;2022-07-19T14:54:59;2.72;;;2.53;;
7029;SDS011;3556;53.500;10.176;2022-07-19T14:57:25;3.15;;;2.38;;
7029;SDS011;3556;53.500;10.176;2022-07-19T14:59:51;10.30;;;3.25;;
7029;SDS011;3556;53.500;10.176;2022-07-19T15:02:17;2.72;;;2.53;;
7029;SDS011;3556;53.500;10.176;2022-07-19T15:04:43;4.55;;;2.63;;
7029;SDS011;3556;53.500;10.176;2022-07-19T15:07:09;2.70;;;2.50;;
7029;SDS011;3556;53.500;10.176;2022-07-19T15:09:35;2.90;;;2.67;;
7029;SDS011;3556;53.500;10.176;2022-07-19T15:12:00;3.00;;;2.70;;
7029;SDS011;3556;53.500;10.176;2022-07-19T15:14:28;2.45;;;2.33;;
7029;SDS011;3556;53.500;10.176;2022-07-19T15:16:55;9.43;;;2.80;;
7029;SDS011;3556;53.500;10.176;2022-07-19T15:19:21;2.78;;;2.67;;
7029;SDS011;3556;53.500;10.176;2022-07-19T15:21:47;2.72;;;2.58;;
7029;SDS011;3556;53.500;10.176;2022-07-19T15:24:13;2.63;;;2.42;;
7029;SDS011;3556;53.500;10.176;2022-07-19T15:26:38;2.88;;;2.78;;